createdAt,value
2023-04-24T00:05:04.961Z,64.26
2023-04-24T00:15:13.435Z,64.41
2023-04-24T00:25:21.073Z,64.71
2023-04-24T00:35:28.302Z,65.31
2023-04-24T00:45:34.468Z,65.62
2023-04-24T00:55:42.005Z,65.91
2023-04-24T01:05:49.646Z,66.16
2023-04-24T01:15:57.111Z,66.22
2023-04-24T01:26:04.430Z,66.26
2023-04-24T01:36:09.465Z,66.15
2023-04-24T01:46:17.504Z,66.06
2023-04-24T01:56:25.704Z,65.82
2023-04-24T02:06:32.481Z,65.89
2023-04-24T02:16:39.558Z,65.93
2023-04-24T02:26:46.915Z,66.06
2023-04-24T02:36:54.128Z,66.04
2023-04-24T02:47:01.210Z,66.32
2023-04-24T02:57:08.317Z,66.37
2023-04-24T03:07:15.218Z,66.90
2023-04-24T03:17:22.391Z,67.43
2023-04-24T03:27:29.744Z,67.52
2023-04-24T03:37:36.698Z,67.58
2023-04-24T03:47:42.808Z,67.47
2023-04-24T03:57:50.037Z,67.35
2023-04-24T04:07:57.402Z,67.36
2023-04-24T04:18:04.425Z,67.40
2023-04-24T04:28:11.751Z,67.19
2023-04-24T04:38:18.076Z,66.89
2023-04-24T04:48:25.317Z,66.68
2023-04-24T04:58:32.533Z,66.44
2023-04-24T05:08:40.094Z,66.20
2023-04-24T05:18:47.482Z,66.40
2023-04-24T05:28:55.290Z,66.02
2023-04-24T05:39:02.328Z,64.38
2023-04-24T05:49:09.563Z,62.78
2023-04-24T05:59:16.637Z,59.32
2023-04-24T06:09:23.999Z,56.76
2023-04-24T06:19:31.521Z,53.79
2023-04-24T06:29:39.545Z,52.69
2023-04-24T06:39:47.085Z,50.96
2023-04-24T06:49:54.540Z,50.78
2023-04-24T07:00:02.165Z,49.60
2023-04-24T07:10:10.919Z,48.60
2023-04-24T07:20:18.643Z,47.51
2023-04-24T07:30:24.670Z,45.30
2023-04-24T07:40:32.076Z,44.16
2023-04-24T07:50:39.343Z,41.55
2023-04-24T08:00:46.775Z,39.34
2023-04-24T08:10:54.459Z,38.94
2023-04-24T08:20:59.636Z,38.58
2023-04-24T08:31:07.723Z,37.74
2023-04-24T08:41:16.581Z,38.05
2023-04-24T08:51:24.988Z,37.80
2023-04-24T09:01:34.374Z,36.93
2023-04-24T09:11:42.252Z,34.59
2023-04-24T09:21:47.458Z,34.81
2023-04-24T09:31:55.200Z,35.56
2023-04-24T09:42:05.216Z,34.37
2023-04-24T09:52:13.546Z,34.06
2023-04-24T10:02:22.736Z,33.46
2023-04-24T10:12:32.218Z,31.67
2023-04-24T10:22:40.301Z,30.82
2023-04-24T10:32:48.572Z,30.22
2023-04-24T10:42:58.123Z,31.18
2023-04-24T10:53:21.210Z,31.70
2023-04-24T11:13:50.704Z,29.99
2023-04-24T11:23:58.530Z,29.68
2023-04-24T11:34:09.200Z,28.98
2023-04-24T11:44:22.774Z,30.21
2023-04-24T11:54:30.740Z,30.53
2023-04-24T12:04:41.775Z,30.79
2023-04-24T12:14:59.853Z,31.28
2023-04-24T12:25:04.819Z,33.12
2023-04-24T12:35:12.836Z,35.15
2023-04-24T12:45:24.577Z,36.48
2023-04-24T12:55:31.800Z,37.49
2023-04-24T13:05:39.179Z,38.16
2023-04-24T13:15:46.508Z,38.79
2023-04-24T13:25:58.643Z,39.45
2023-04-24T13:36:05.919Z,39.91
2023-04-24T13:46:12.194Z,40.59
2023-04-24T13:56:19.782Z,41.90
2023-04-24T14:06:27.476Z,42.45
2023-04-24T14:16:34.911Z,43.53
2023-04-24T14:26:42.122Z,44.34
2023-04-24T14:36:49.265Z,44.40
2023-04-24T14:46:56.753Z,44.00
2023-04-24T14:57:02.617Z,44.44
2023-04-24T15:07:09.741Z,45.60
2023-04-24T15:17:16.970Z,46.11
2023-04-24T15:27:24.437Z,46.36
2023-04-24T15:37:31.574Z,46.34
2023-04-24T15:47:38.976Z,46.67
2023-04-24T15:57:49.314Z,46.82
2023-04-24T16:07:56.401Z,47.12
2023-04-24T16:18:04.027Z,47.60
2023-04-24T16:28:12.307Z,47.84
2023-04-24T16:38:19.444Z,48.43
2023-04-24T16:48:26.605Z,48.81
2023-04-24T16:58:34.065Z,49.55
2023-04-24T17:08:41.432Z,49.87
2023-04-24T17:18:48.844Z,50.46
2023-04-24T17:28:56.251Z,50.92
2023-04-24T17:39:03.949Z,51.38
2023-04-24T17:49:11.255Z,51.94
2023-04-24T17:59:18.643Z,52.74
2023-04-24T18:09:26.221Z,53.31
2023-04-24T18:19:33.317Z,53.88
2023-04-24T18:29:40.809Z,54.93
2023-04-24T18:39:47.976Z,56.16
2023-04-24T18:49:54.281Z,57.03
2023-04-24T19:00:02.105Z,57.90
2023-04-24T19:10:09.302Z,58.98
2023-04-24T19:20:16.514Z,60.00
2023-04-24T19:30:24.006Z,60.61
2023-04-24T19:40:31.093Z,61.54
2023-04-24T19:50:36.918Z,62.24
2023-04-24T20:00:43.943Z,62.72
2023-04-24T20:10:52.459Z,63.14
2023-04-24T20:21:00.134Z,63.84
2023-04-24T20:31:07.731Z,64.26
2023-04-24T20:41:16.349Z,65.18
2023-04-24T20:51:23.518Z,65.65
2023-04-24T21:01:30.561Z,66.52
2023-04-24T21:11:38.043Z,67.45
2023-04-24T21:21:45.064Z,68.27
2023-04-24T21:31:53.863Z,68.58
2023-04-24T21:42:01.163Z,69.52
2023-04-24T21:52:08.204Z,70.69
2023-04-24T22:02:14.293Z,70.90
2023-04-24T22:12:22.060Z,71.11
2023-04-24T22:22:29.404Z,71.69
2023-04-24T22:32:37.035Z,72.10
2023-04-24T22:42:43.664Z,72.25
2023-04-24T22:52:52.432Z,72.27
2023-04-24T23:02:59.634Z,72.38
2023-04-24T23:13:07.102Z,72.77
2023-04-24T23:23:16.137Z,73.04
2023-04-24T23:33:22.835Z,73.15
2023-04-24T23:43:28.724Z,73.49
2023-04-24T23:53:36.205Z,73.75
